sensor_id;sensor_type;location;lat;lon;timestamp;pressure;altitude;pressure_sealevel;temperature;humidity
20612;BME280;10465;42.686;23.364;2022-08-25T00:01:39;94861.41;;;23.31;80.26
20612;BME280;10465;42.686;23.364;2022-08-25T00:04:08;94815.09;;;23.01;80.17
20612;BME280;10465;42.686;23.364;2022-08-25T00:06:36;94860.63;;;23.31;80.30
20612;BME280;10465;42.686;23.364;2022-08-25T00:09:02;94858.28;;;23.33;80.67
20612;BME280;10465;42.686;23.364;2022-08-25T00:11:30;94856.00;;;23.35;80.41
20612;BME280;10465;42.686;23.364;2022-08-25T00:13:59;94857.94;;;23.31;80.43
20612;BME280;10465;42.686;23.364;2022-08-25T00:16:26;94846.72;;;23.25;80.61
20612;BME280;10465;42.686;23.364;2022-08-25T00:18:54;94853.66;;;23.33;80.67
20612;BME280;10465;42.686;23.364;2022-08-25T00:21:21;94852.53;;;23.34;80.64
20612;BME280;10465;42.686;23.364;2022-08-25T00:23:47;94846.34;;;23.30;80.49
20612;BME280;10465;42.686;23.364;2022-08-25T00:26:13;94835.16;;;23.21;80.37
20612;BME280;10465;42.686;23.364;2022-08-25T00:28:40;94837.88;;;23.17;80.50
20612;BME280;10465;42.686;23.364;2022-08-25T00:31:10;94839.00;;;23.20;80.66
20612;BME280;10465;42.686;23.364;2022-08-25T00:33:36;94851.75;;;23.30;80.55
20612;BME280;10465;42.686;23.364;2022-08-25T00:36:02;94840.94;;;23.16;80.87
20612;BME280;10465;42.686;23.364;2022-08-25T00:38:29;94838.66;;;23.22;80.71
20612;BME280;10465;42.686;23.364;2022-08-25T00:40:55;94834.00;;;23.15;80.42
20612;BME280;10465;42.686;23.364;2022-08-25T00:46:19;94857.53;;;23.25;80.55
20612;BME280;10465;42.686;23.364;2022-08-25T00:48:48;94852.13;;;23.25;80.73
20612;BME280;10465;42.686;23.364;2022-08-25T00:51:19;94855.22;;;23.20;80.80
20612;BME280;10465;42.686;23.364;2022-08-25T00:53:46;94864.09;;;23.24;80.74
20612;BME280;10465;42.686;23.364;2022-08-25T00:56:13;94851.75;;;23.27;80.82
20612;BME280;10465;42.686;23.364;2022-08-25T00:58:39;94847.09;;;23.16;80.81
20612;BME280;10465;42.686;23.364;2022-08-25T01:01:04;94857.16;;;23.23;81.07
20612;BME280;10465;42.686;23.364;2022-08-25T01:03:30;94829.78;;;23.14;80.88
20612;BME280;10465;42.686;23.364;2022-08-25T01:05:59;94844.03;;;23.22;80.96
20612;BME280;10465;42.686;23.364;2022-08-25T01:08:27;94835.16;;;23.21;81.15
20612;BME280;10465;42.686;23.364;2022-08-25T01:10:54;94840.94;;;23.23;80.71
20612;BME280;10465;42.686;23.364;2022-08-25T01:13:41;94830.91;;;23.20;80.90
20612;BME280;10465;42.686;23.364;2022-08-25T01:16:09;94829.75;;;23.21;80.90
20612;BME280;10465;42.686;23.364;2022-08-25T01:18:48;94799.31;;;23.10;80.71
20612;BME280;10465;42.686;23.364;2022-08-25T01:21:16;94793.13;;;23.06;80.96
20612;BME280;10465;42.686;23.364;2022-08-25T01:23:42;94833.63;;;23.16;81.69
20612;BME280;10465;42.686;23.364;2022-08-25T01:26:16;94823.59;;;23.03;82.05
20612;BME280;10465;42.686;23.364;2022-08-25T01:28:44;94829.00;;;23.06;82.26
20612;BME280;10465;42.686;23.364;2022-08-25T01:31:28;94837.84;;;23.00;82.39
20612;BME280;10465;42.686;23.364;2022-08-25T01:33:55;94822.78;;;22.74;82.89
20612;BME280;10465;42.686;23.364;2022-08-25T01:36:21;94833.19;;;22.86;83.10
20612;BME280;10465;42.686;23.364;2022-08-25T01:38:47;94827.38;;;22.80;83.61
20612;BME280;10465;42.686;23.364;2022-08-25T01:41:16;94826.25;;;22.78;83.53
20612;BME280;10465;42.686;23.364;2022-08-25T01:43:45;94812.75;;;22.81;83.45
20612;BME280;10465;42.686;23.364;2022-08-25T01:46:11;94826.25;;;22.88;82.88
20612;BME280;10465;42.686;23.364;2022-08-25T01:48:37;94835.91;;;22.86;83.13
20612;BME280;10465;42.686;23.364;2022-08-25T01:51:03;94826.25;;;22.88;82.88
20612;BME280;10465;42.686;23.364;2022-08-25T01:53:29;94841.72;;;22.99;82.33
20612;BME280;10465;42.686;23.364;2022-08-25T01:55:56;94829.38;;;23.01;82.04
20612;BME280;10465;42.686;23.364;2022-08-25T01:58:34;94810.03;;;22.88;82.00
20612;BME280;10465;42.686;23.364;2022-08-25T02:01:03;94833.63;;;22.95;81.87
20612;BME280;10465;42.686;23.364;2022-08-25T02:03:29;94830.09;;;22.84;82.25
20612;BME280;10465;42.686;23.364;2022-08-25T02:05:56;94819.69;;;22.75;82.57
20612;BME280;10465;42.686;23.364;2022-08-25T02:08:22;94807.38;;;22.81;82.38
20612;BME280;10465;42.686;23.364;2022-08-25T02:10:49;94814.31;;;22.86;82.24
20612;BME280;10465;42.686;23.364;2022-08-25T02:13:15;94812.75;;;22.88;81.84
20612;BME280;10465;42.686;23.364;2022-08-25T02:15:42;94813.53;;;22.82;82.03
20612;BME280;10465;42.686;23.364;2022-08-25T02:18:09;94789.97;;;22.64;81.98
20612;BME280;10465;42.686;23.364;2022-08-25T02:20:35;94807.72;;;22.62;82.30
20612;BME280;10465;42.686;23.364;2022-08-25T02:23:01;94810.78;;;22.53;82.95
20612;BME280;10465;42.686;23.364;2022-08-25T02:25:27;94806.53;;;22.45;82.77
20612;BME280;10465;42.686;23.364;2022-08-25T02:27:52;94795.31;;;22.36;82.25
20612;BME280;10465;42.686;23.364;2022-08-25T02:30:18;94761.41;;;22.17;81.69
20612;BME280;10465;42.686;23.364;2022-08-25T02:32:44;94808.09;;;22.57;81.51
20612;BME280;10465;42.686;23.364;2022-08-25T02:35:10;94796.53;;;22.49;81.23
20612;BME280;10465;42.686;23.364;2022-08-25T02:37:36;94814.66;;;22.63;80.88
20612;BME280;10465;42.686;23.364;2022-08-25T02:40:02;94810.00;;;22.56;81.24
20612;BME280;10465;42.686;23.364;2022-08-25T02:42:28;94818.13;;;22.53;81.59
20612;BME280;10465;42.686;23.364;2022-08-25T02:44:54;94806.53;;;22.45;81.70
20612;BME280;10465;42.686;23.364;2022-08-25T02:47:20;94808.09;;;22.53;81.79
20612;BME280;10465;42.686;23.364;2022-08-25T02:49:46;94813.13;;;22.62;81.79
20612;BME280;10465;42.686;23.364;2022-08-25T02:52:12;94808.88;;;22.61;81.81
20612;BME280;10465;42.686;23.364;2022-08-25T02:54:38;94821.22;;;22.69;81.57
20612;BME280;10465;42.686;23.364;2022-08-25T02:57:03;94822.00;;;22.66;81.47
20612;BME280;10465;42.686;23.364;2022-08-25T02:59:29;94804.25;;;22.54;81.53
20612;BME280;10465;42.686;23.364;2022-08-25T03:01:54;94825.47;;;22.66;81.33
20612;BME280;10465;42.686;23.364;2022-08-25T03:04:20;94830.88;;;22.74;81.16
20612;BME280;10465;42.686;23.364;2022-08-25T03:06:46;94838.56;;;22.75;81.22
20612;BME280;10465;42.686;23.364;2022-08-25T03:09:12;94832.41;;;22.75;81.22
20612;BME280;10465;42.686;23.364;2022-08-25T03:11:38;94833.16;;;22.75;80.58
20612;BME280;10465;42.686;23.364;2022-08-25T03:14:04;94826.63;;;22.80;80.34
20612;BME280;10465;42.686;23.364;2022-08-25T03:16:30;94794.59;;;22.50;80.96
20612;BME280;10465;42.686;23.364;2022-08-25T03:18:56;94824.31;;;22.71;81.11
20612;BME280;10465;42.686;23.364;2022-08-25T03:21:22;94820.44;;;22.65;81.15
20612;BME280;10465;42.686;23.364;2022-08-25T03:23:49;94823.91;;;22.65;81.20
20612;BME280;10465;42.686;23.364;2022-08-25T03:26:14;94798.06;;;22.50;80.87
20612;BME280;10465;42.686;23.364;2022-08-25T03:28:59;94805.75;;;22.52;80.88
20612;BME280;10465;42.686;23.364;2022-08-25T03:31:29;94824.69;;;22.62;80.65
20612;BME280;10465;42.686;23.364;2022-08-25T03:33:56;94836.25;;;22.70;80.53
20612;BME280;10465;42.686;23.364;2022-08-25T03:36:23;94842.78;;;22.73;80.14
20612;BME280;10465;42.686;23.364;2022-08-25T03:38:49;94846.28;;;22.73;79.78
20612;BME280;10465;42.686;23.364;2022-08-25T03:41:18;94841.25;;;22.71;79.78
20612;BME280;10465;42.686;23.364;2022-08-25T03:43:46;94830.88;;;22.74;79.78
20612;BME280;10465;42.686;23.364;2022-08-25T03:46:22;94830.09;;;22.73;79.65
20612;BME280;10465;42.686;23.364;2022-08-25T03:48:49;94796.91;;;22.55;79.96
20612;BME280;10465;42.686;23.364;2022-08-25T03:51:23;94817.75;;;22.72;80.23
20612;BME280;10465;42.686;23.364;2022-08-25T03:53:49;94812.34;;;22.65;80.41
20612;BME280;10465;42.686;23.364;2022-08-25T03:56:15;94807.72;;;22.58;80.63
20612;BME280;10465;42.686;23.364;2022-08-25T03:58:43;94810.00;;;22.60;80.08
20612;BME280;10465;42.686;23.364;2022-08-25T04:01:21;94821.59;;;22.67;80.10
20612;BME280;10465;42.686;23.364;2022-08-25T04:03:53;94816.19;;;22.67;80.09
20612;BME280;10465;42.686;23.364;2022-08-25T04:06:27;94798.84;;;22.54;79.91
20612;BME280;10465;42.686;23.364;2022-08-25T04:08:55;94818.53;;;22.65;80.01
20612;BME280;10465;42.686;23.364;2022-08-25T04:11:22;94814.66;;;22.66;79.83
20612;BME280;10465;42.686;23.364;2022-08-25T04:13:49;94797.69;;;22.55;79.79
20612;BME280;10465;42.686;23.364;2022-08-25T04:16:21;94822.00;;;22.69;79.81
20612;BME280;10465;42.686;23.364;2022-08-25T04:18:48;94801.16;;;22.59;79.83
20612;BME280;10465;42.686;23.364;2022-08-25T04:21:18;94795.38;;;22.50;79.75
20612;BME280;10465;42.686;23.364;2022-08-25T04:23:46;94811.94;;;22.63;80.09
20612;BME280;10465;42.686;23.364;2022-08-25T04:26:16;94795.00;;;22.59;79.89
20612;BME280;10465;42.686;23.364;2022-08-25T04:28:44;94796.94;;;22.65;79.85
20612;BME280;10465;42.686;23.364;2022-08-25T04:31:11;94802.31;;;22.73;79.41
20612;BME280;10465;42.686;23.364;2022-08-25T04:33:39;94808.50;;;22.69;79.45
20612;BME280;10465;42.686;23.364;2022-08-25T04:36:06;94811.56;;;22.68;79.28
20612;BME280;10465;42.686;23.364;2022-08-25T04:38:32;94820.84;;;22.70;79.33
20612;BME280;10465;42.686;23.364;2022-08-25T04:41:00;94823.91;;;22.76;79.10
20612;BME280;10465;42.686;23.364;2022-08-25T04:43:26;94809.25;;;22.59;79.19
20612;BME280;10465;42.686;23.364;2022-08-25T04:45:51;94810.81;;;22.67;78.87
20612;BME280;10465;42.686;23.364;2022-08-25T04:48:18;94823.94;;;22.83;78.48
20612;BME280;10465;42.686;23.364;2022-08-25T04:50:44;94835.13;;;22.85;78.59
20612;BME280;10465;42.686;23.364;2022-08-25T04:53:10;94805.41;;;22.64;78.62
20612;BME280;10465;42.686;23.364;2022-08-25T04:55:40;94802.69;;;22.60;78.72
20612;BME280;10465;42.686;23.364;2022-08-25T04:58:06;94837.81;;;22.82;78.88
20612;BME280;10465;42.686;23.364;2022-08-25T05:00:33;94846.69;;;22.82;78.64
20612;BME280;10465;42.686;23.364;2022-08-25T05:03:00;94843.97;;;22.82;78.79
20612;BME280;10465;42.686;23.364;2022-08-25T05:05:25;94813.91;;;22.66;78.33
20612;BME280;10465;42.686;23.364;2022-08-25T05:07:51;94824.69;;;22.77;78.11
20612;BME280;10465;42.686;23.364;2022-08-25T05:10:17;94830.09;;;22.84;77.98
20612;BME280;10465;42.686;23.364;2022-08-25T05:12:44;94820.84;;;22.85;78.00
20612;BME280;10465;42.686;23.364;2022-08-25T05:15:10;94824.72;;;22.87;77.87
20612;BME280;10465;42.686;23.364;2022-08-25T05:17:55;94810.06;;;22.78;78.10
20612;BME280;10465;42.686;23.364;2022-08-25T05:20:20;94802.72;;;22.75;78.26
20612;BME280;10465;42.686;23.364;2022-08-25T05:22:46;94822.78;;;22.84;78.11
20612;BME280;10465;42.686;23.364;2022-08-25T05:25:12;94813.13;;;22.83;78.35
20612;BME280;10465;42.686;23.364;2022-08-25T05:27:39;94815.06;;;22.86;78.28
20612;BME280;10465;42.686;23.364;2022-08-25T05:30:05;94803.50;;;22.79;78.37
20612;BME280;10465;42.686;23.364;2022-08-25T05:32:31;94819.72;;;23.00;77.79
20612;BME280;10465;42.686;23.364;2022-08-25T05:34:57;94813.56;;;23.00;77.42
20612;BME280;10465;42.686;23.364;2022-08-25T05:37:22;94825.50;;;23.13;77.18
20612;BME280;10465;42.686;23.364;2022-08-25T05:39:48;94803.53;;;23.11;76.86
20612;BME280;10465;42.686;23.364;2022-08-25T05:42:13;94817.81;;;23.26;76.41
20612;BME280;10465;42.686;23.364;2022-08-25T05:44:38;94791.59;;;22.94;76.54
20612;BME280;10465;42.686;23.364;2022-08-25T05:47:04;94815.50;;;23.10;77.02
20612;BME280;10465;42.686;23.364;2022-08-25T05:49:29;94770.34;;;22.85;77.38
20612;BME280;10465;42.686;23.364;2022-08-25T05:51:55;94794.28;;;23.08;76.55
20612;BME280;10465;42.686;23.364;2022-08-25T05:54:20;94824.72;;;23.37;76.53
20612;BME280;10465;42.686;23.364;2022-08-25T05:56:46;94773.47;;;23.05;76.09
20612;BME280;10465;42.686;23.364;2022-08-25T05:59:11;94824.34;;;23.39;75.58
20612;BME280;10465;42.686;23.364;2022-08-25T06:01:37;94790.81;;;23.18;75.79
20612;BME280;10465;42.686;23.364;2022-08-25T06:04:21;94823.19;;;23.47;75.32
20612;BME280;10465;42.686;23.364;2022-08-25T06:06:47;94790.41;;;23.38;74.86
20612;BME280;10465;42.686;23.364;2022-08-25T06:09:13;94821.22;;;23.65;74.35
20612;BME280;10465;42.686;23.364;2022-08-25T06:11:39;94831.66;;;23.63;74.40
20612;BME280;10465;42.686;23.364;2022-08-25T06:14:08;94828.19;;;23.70;74.89
20612;BME280;10465;42.686;23.364;2022-08-25T06:16:34;94824.69;;;23.77;74.27
20612;BME280;10465;42.686;23.364;2022-08-25T06:18:59;94788.06;;;23.58;74.10
20612;BME280;10465;42.686;23.364;2022-08-25T06:21:25;94822.34;;;23.86;74.01
20612;BME280;10465;42.686;23.364;2022-08-25T06:23:50;94820.03;;;23.84;74.13
20612;BME280;10465;42.686;23.364;2022-08-25T06:26:16;94789.56;;;23.73;74.11
20612;BME280;10465;42.686;23.364;2022-08-25T06:28:42;94792.66;;;23.75;74.19
20612;BME280;10465;42.686;23.364;2022-08-25T06:31:07;94814.97;;;24.01;74.46
20612;BME280;10465;42.686;23.364;2022-08-25T06:33:33;94819.16;;;24.12;74.63
20612;BME280;10465;42.686;23.364;2022-08-25T06:35:59;94791.38;;;24.08;74.10
20612;BME280;10465;42.686;23.364;2022-08-25T06:38:25;94790.19;;;24.16;73.50
20612;BME280;10465;42.686;23.364;2022-08-25T06:40:50;94812.91;;;24.30;73.58
20612;BME280;10465;42.686;23.364;2022-08-25T06:43:19;94821.78;;;24.34;73.09
20612;BME280;10465;42.686;23.364;2022-08-25T06:45:45;94822.94;;;24.40;73.14
20612;BME280;10465;42.686;23.364;2022-08-25T06:48:11;94802.91;;;24.23;73.37
20612;BME280;10465;42.686;23.364;2022-08-25T06:50:37;94811.72;;;24.34;72.66
20612;BME280;10465;42.686;23.364;2022-08-25T06:53:04;94824.88;;;24.36;73.03
20612;BME280;10465;42.686;23.364;2022-08-25T06:55:30;94819.06;;;24.34;73.45
20612;BME280;10465;42.686;23.364;2022-08-25T06:57:56;94795.19;;;24.14;73.33
20612;BME280;10465;42.686;23.364;2022-08-25T07:00:21;94810.63;;;24.21;73.40
20612;BME280;10465;42.686;23.364;2022-08-25T07:02:50;94820.22;;;24.40;73.38
20612;BME280;10465;42.686;23.364;2022-08-25T07:05:15;94815.22;;;24.35;72.85
20612;BME280;10465;42.686;23.364;2022-08-25T07:07:41;94801.34;;;24.22;73.32
20612;BME280;10465;42.686;23.364;2022-08-25T07:10:10;94824.47;;;24.34;73.67
20612;BME280;10465;42.686;23.364;2022-08-25T07:12:37;94823.69;;;24.37;73.11
20612;BME280;10465;42.686;23.364;2022-08-25T07:15:03;94825.25;;;24.41;72.50
20612;BME280;10465;42.686;23.364;2022-08-25T07:17:29;94827.91;;;24.52;72.53
20612;BME280;10465;42.686;23.364;2022-08-25T07:19:54;94815.88;;;24.57;72.04
20612;BME280;10465;42.686;23.364;2022-08-25T07:22:20;94822.03;;;24.61;71.74
20612;BME280;10465;42.686;23.364;2022-08-25T07:24:45;94804.25;;;24.63;71.72
20612;BME280;10465;42.686;23.364;2022-08-25T07:27:11;94827.72;;;24.81;70.98
20612;BME280;10465;42.686;23.364;2022-08-25T07:29:36;94817.63;;;24.88;70.96
20612;BME280;10465;42.686;23.364;2022-08-25T07:32:03;94815.28;;;24.90;70.05
20612;BME280;10465;42.686;23.364;2022-08-25T07:34:30;94811.69;;;25.08;69.48
20612;BME280;10465;42.686;23.364;2022-08-25T07:37:15;94795.91;;;24.96;69.11
20612;BME280;10465;42.686;23.364;2022-08-25T07:39:41;94791.59;;;25.02;69.61
20612;BME280;10465;42.686;23.364;2022-08-25T07:42:07;94817.81;;;25.15;69.55
20612;BME280;10465;42.686;23.364;2022-08-25T07:44:33;94827.09;;;25.18;69.45
20612;BME280;10465;42.686;23.364;2022-08-25T07:46:59;94825.56;;;25.17;69.34
20612;BME280;10465;42.686;23.364;2022-08-25T07:49:25;94824.38;;;25.18;68.88
20612;BME280;10465;42.686;23.364;2022-08-25T07:51:52;94832.06;;;25.23;69.44
20612;BME280;10465;42.686;23.364;2022-08-25T07:54:18;94828.13;;;25.31;69.37
20612;BME280;10465;42.686;23.364;2022-08-25T07:56:44;94814.97;;;25.33;68.43
20612;BME280;10465;42.686;23.364;2022-08-25T07:59:09;94802.53;;;25.36;68.32
20612;BME280;10465;42.686;23.364;2022-08-25T08:01:35;94820.13;;;25.62;67.98
20612;BME280;10465;42.686;23.364;2022-08-25T08:04:01;94809.97;;;25.70;66.81
20612;BME280;10465;42.686;23.364;2022-08-25T08:06:27;94834.94;;;25.92;66.38
20612;BME280;10465;42.686;23.364;2022-08-25T08:08:53;94811.59;;;26.01;66.21
20612;BME280;10465;42.686;23.364;2022-08-25T08:11:28;94816.50;;;26.13;65.28
20612;BME280;10465;42.686;23.364;2022-08-25T08:13:56;94814.47;;;26.21;65.20
20612;BME280;10465;42.686;23.364;2022-08-25T08:16:24;94804.69;;;26.27;64.63
20612;BME280;10465;42.686;23.364;2022-08-25T08:18:50;94798.34;;;26.37;64.52
20612;BME280;10465;42.686;23.364;2022-08-25T08:21:29;94812.50;;;26.52;64.32
20612;BME280;10465;42.686;23.364;2022-08-25T08:23:55;94799.28;;;26.58;63.69
20612;BME280;10465;42.686;23.364;2022-08-25T08:26:21;94809.56;;;26.70;62.16
20612;BME280;10465;42.686;23.364;2022-08-25T08:28:48;94799.75;;;26.76;61.33
20612;BME280;10465;42.686;23.364;2022-08-25T08:31:15;94792.13;;;26.68;61.23
20612;BME280;10465;42.686;23.364;2022-08-25T08:33:44;94793.41;;;26.59;61.61
20612;BME280;10465;42.686;23.364;2022-08-25T08:36:10;94791.47;;;26.60;61.38
20612;BME280;10465;42.686;23.364;2022-08-25T08:38:38;94794.75;;;26.75;60.49
20612;BME280;10465;42.686;23.364;2022-08-25T08:43:57;94777.78;;;26.94;58.07
20612;BME280;10465;42.686;23.364;2022-08-25T08:46:30;94756.28;;;27.03;56.60
20612;BME280;10465;42.686;23.364;2022-08-25T08:49:05;94798.41;;;27.39;57.13
20612;BME280;10465;42.686;23.364;2022-08-25T08:51:43;94797.94;;;27.44;56.63
20612;BME280;10465;42.686;23.364;2022-08-25T08:54:13;94795.72;;;27.58;54.71
20612;BME280;10465;42.686;23.364;2022-08-25T08:57:21;94798.16;;;27.76;54.41
20612;BME280;10465;42.686;23.364;2022-08-25T08:59:54;94781.84;;;27.76;54.59
20612;BME280;10465;42.686;23.364;2022-08-25T09:05:12;94790.97;;;28.06;52.38
20612;BME280;10465;42.686;23.364;2022-08-25T09:07:44;94771.31;;;27.98;51.33
20612;BME280;10465;42.686;23.364;2022-08-25T09:10:13;94796.06;;;28.24;50.84
20612;BME280;10465;42.686;23.364;2022-08-25T09:15:14;94797.78;;;28.34;52.11
20612;BME280;10465;42.686;23.364;2022-08-25T09:17:58;94793.47;;;28.56;49.94
20612;BME280;10465;42.686;23.364;2022-08-25T09:28:27;94773.78;;;28.49;46.16
20612;BME280;10465;42.686;23.364;2022-08-25T09:31:08;94782.03;;;28.25;47.69
20612;BME280;10465;42.686;23.364;2022-08-25T09:33:38;94781.97;;;28.09;48.36
20612;BME280;10465;42.686;23.364;2022-08-25T09:36:04;94775.00;;;27.88;49.04
20612;BME280;10465;42.686;23.364;2022-08-25T09:38:29;94743.25;;;27.61;49.53
20612;BME280;10465;42.686;23.364;2022-08-25T09:40:58;94780.91;;;27.63;50.61
20612;BME280;10465;42.686;23.364;2022-08-25T09:43:34;94772.25;;;27.68;50.15
20612;BME280;10465;42.686;23.364;2022-08-25T09:48:32;94765.16;;;27.94;48.19
20612;BME280;10465;42.686;23.364;2022-08-25T09:51:20;94767.66;;;28.25;47.32
20612;BME280;10465;42.686;23.364;2022-08-25T09:53:52;94776.41;;;28.36;46.53
20612;BME280;10465;42.686;23.364;2022-08-25T09:56:21;94781.03;;;28.35;46.81
20612;BME280;10465;42.686;23.364;2022-08-25T09:58:48;94749.25;;;28.13;47.00
20612;BME280;10465;42.686;23.364;2022-08-25T10:01:19;94744.22;;;27.91;46.20
20612;BME280;10465;42.686;23.364;2022-08-25T10:03:55;94779.25;;;27.89;47.17
20612;BME280;10465;42.686;23.364;2022-08-25T10:06:21;94771.50;;;27.68;48.77
20612;BME280;10465;42.686;23.364;2022-08-25T10:11:29;94771.44;;;27.91;49.45
20612;BME280;10465;42.686;23.364;2022-08-25T10:14:13;94780.91;;;28.23;48.50
20612;BME280;10465;42.686;23.364;2022-08-25T10:16:40;94770.44;;;28.41;48.50
20612;BME280;10465;42.686;23.364;2022-08-25T10:19:12;94777.81;;;28.61;48.39
20612;BME280;10465;42.686;23.364;2022-08-25T10:21:40;94760.44;;;28.71;47.20
20612;BME280;10465;42.686;23.364;2022-08-25T10:24:08;94768.72;;;29.00;46.14
20612;BME280;10465;42.686;23.364;2022-08-25T10:32:02;94756.69;;;29.46;44.33
20612;BME280;10465;42.686;23.364;2022-08-25T10:34:49;94759.31;;;29.66;42.91
20612;BME280;10465;42.686;23.364;2022-08-25T10:40:36;94757.34;;;29.67;42.30
20612;BME280;10465;42.686;23.364;2022-08-25T10:43:09;94745.88;;;29.72;42.26
20612;BME280;10465;42.686;23.364;2022-08-25T10:45:44;94751.41;;;29.97;41.21
20612;BME280;10465;42.686;23.364;2022-08-25T10:57:21;94732.16;;;29.75;41.08
20612;BME280;10465;42.686;23.364;2022-08-25T10:59:59;94738.91;;;29.71;41.89
20612;BME280;10465;42.686;23.364;2022-08-25T11:02:46;94738.09;;;29.87;42.13
20612;BME280;10465;42.686;23.364;2022-08-25T11:07:58;94727.41;;;30.05;41.74
20612;BME280;10465;42.686;23.364;2022-08-25T11:10:39;94726.38;;;30.15;41.09
20612;BME280;10465;42.686;23.364;2022-08-25T11:13:14;94739.34;;;30.11;41.65
20612;BME280;10465;42.686;23.364;2022-08-25T11:16:02;94728.41;;;29.98;42.66
20612;BME280;10465;42.686;23.364;2022-08-25T11:18:31;94707.53;;;30.04;41.01
20612;BME280;10465;42.686;23.364;2022-08-25T11:23:45;94715.25;;;30.48;40.14
20612;BME280;10465;42.686;23.364;2022-08-25T11:26:18;94712.28;;;30.42;40.45
20612;BME280;10465;42.686;23.364;2022-08-25T11:29:02;94712.06;;;30.49;40.79
20612;BME280;10465;42.686;23.364;2022-08-25T11:31:29;94706.59;;;30.62;40.15
20612;BME280;10465;42.686;23.364;2022-08-25T11:33:56;94700.91;;;30.82;39.84
20612;BME280;10465;42.686;23.364;2022-08-25T11:36:29;94693.63;;;30.79;39.43
20612;BME280;10465;42.686;23.364;2022-08-25T11:42:35;94690.94;;;31.01;39.83
20612;BME280;10465;42.686;23.364;2022-08-25T11:50:58;94690.91;;;30.79;38.60
20612;BME280;10465;42.686;23.364;2022-08-25T11:53:30;94686.28;;;30.89;38.82
20612;BME280;10465;42.686;23.364;2022-08-25T11:56:01;94667.34;;;30.94;38.82
20612;BME280;10465;42.686;23.364;2022-08-25T11:58:51;94683.34;;;30.83;38.77
20612;BME280;10465;42.686;23.364;2022-08-25T12:04:39;94677.78;;;30.74;38.70
20612;BME280;10465;42.686;23.364;2022-08-25T12:26:29;94680.34;;;31.38;37.31
20612;BME280;10465;42.686;23.364;2022-08-25T12:29:07;94680.03;;;31.36;37.28
20612;BME280;10465;42.686;23.364;2022-08-25T12:37:26;94659.84;;;31.20;36.10
20612;BME280;10465;42.686;23.364;2022-08-25T12:39:58;94659.34;;;31.35;36.19
20612;BME280;10465;42.686;23.364;2022-08-25T12:42:34;94673.41;;;31.46;36.86
20612;BME280;10465;42.686;23.364;2022-08-25T12:47:35;94680.78;;;31.01;36.58
20612;BME280;10465;42.686;23.364;2022-08-25T12:53:08;94667.75;;;30.33;38.07
20612;BME280;10465;42.686;23.364;2022-08-25T12:55:37;94666.00;;;30.39;37.42
20612;BME280;10465;42.686;23.364;2022-08-25T12:58:05;94664.88;;;30.62;37.56
20612;BME280;10465;42.686;23.364;2022-08-25T13:03:31;94671.44;;;30.77;37.93
20612;BME280;10465;42.686;23.364;2022-08-25T13:11:32;94666.50;;;30.08;38.18
20612;BME280;10465;42.686;23.364;2022-08-25T13:14:21;94669.06;;;29.73;38.38
20612;BME280;10465;42.686;23.364;2022-08-25T13:16:56;94652.78;;;29.28;39.42
20612;BME280;10465;42.686;23.364;2022-08-25T13:19:23;94660.91;;;29.44;39.35
20612;BME280;10465;42.686;23.364;2022-08-25T13:21:50;94672.63;;;29.28;40.37
20612;BME280;10465;42.686;23.364;2022-08-25T13:24:24;94639.44;;;29.17;39.18
20612;BME280;10465;42.686;23.364;2022-08-25T13:26:56;94651.38;;;29.07;40.02
20612;BME280;10465;42.686;23.364;2022-08-25T13:29:26;94664.72;;;29.47;40.13
20612;BME280;10465;42.686;23.364;2022-08-25T13:32:00;94668.22;;;29.76;39.37
20612;BME280;10465;42.686;23.364;2022-08-25T13:34:31;94672.31;;;30.10;38.96
20612;BME280;10465;42.686;23.364;2022-08-25T13:37:17;94676.25;;;30.22;38.16
20612;BME280;10465;42.686;23.364;2022-08-25T13:42:39;94637.13;;;29.74;38.78
20612;BME280;10465;42.686;23.364;2022-08-25T13:45:07;94665.75;;;30.08;38.69
20612;BME280;10465;42.686;23.364;2022-08-25T13:47:37;94668.59;;;30.29;39.10
20612;BME280;10465;42.686;23.364;2022-08-25T13:52:48;94661.06;;;30.46;37.79
20612;BME280;10465;42.686;23.364;2022-08-25T13:58:21;94672.63;;;30.76;36.13
20612;BME280;10465;42.686;23.364;2022-08-25T14:03:42;94676.91;;;30.51;37.72
20612;BME280;10465;42.686;23.364;2022-08-25T14:06:22;94630.06;;;30.15;37.27
20612;BME280;10465;42.686;23.364;2022-08-25T14:14:28;94648.56;;;29.81;38.81
20612;BME280;10465;42.686;23.364;2022-08-25T14:17:02;94655.13;;;29.71;38.81
20612;BME280;10465;42.686;23.364;2022-08-25T14:19:29;94670.16;;;29.76;38.84
20612;BME280;10465;42.686;23.364;2022-08-25T14:21:55;94663.09;;;29.78;38.37
20612;BME280;10465;42.686;23.364;2022-08-25T14:24:27;94670.00;;;29.96;37.86
20612;BME280;10465;42.686;23.364;2022-08-25T14:26:55;94652.41;;;30.10;38.10
20612;BME280;10465;42.686;23.364;2022-08-25T14:29:21;94643.03;;;30.11;38.16
20612;BME280;10465;42.686;23.364;2022-08-25T14:31:46;94645.56;;;30.18;38.34
20612;BME280;10465;42.686;23.364;2022-08-25T14:34:22;94640.09;;;30.18;38.27
20612;BME280;10465;42.686;23.364;2022-08-25T14:36:49;94668.94;;;30.44;37.26
20612;BME280;10465;42.686;23.364;2022-08-25T14:39:15;94667.84;;;30.42;37.68
20612;BME280;10465;42.686;23.364;2022-08-25T14:41:42;94637.25;;;30.34;37.49
20612;BME280;10465;42.686;23.364;2022-08-25T14:44:11;94643.38;;;30.38;37.53
20612;BME280;10465;42.686;23.364;2022-08-25T14:46:40;94665.66;;;30.49;37.34
20612;BME280;10465;42.686;23.364;2022-08-25T14:49:09;94652.03;;;30.24;38.08
20612;BME280;10465;42.686;23.364;2022-08-25T14:51:37;94651.75;;;30.05;37.64
20612;BME280;10465;42.686;23.364;2022-08-25T14:54:06;94662.13;;;29.98;38.07
20612;BME280;10465;42.686;23.364;2022-08-25T14:56:34;94592.72;;;29.44;38.63